Search METAR Data

METAR Data for ENML:

ENML 241620Z 07004KT 050V110 9999 FEW029 BKN085 06/M02 Q1008